This is the latest recevied weather packets stored in our database for station/object KD2FKI. If no packets are shown the sender has not sent any weather packets the latest 10 day(s).
| Time | Temp. | Humidity | Pressure | Rain* | Wind** | Luminosity | Snow |
|---|---|---|---|---|---|---|---|
| 1787933119 | 31.67° C | 56% | - | 0 mm | - | - | - |
| 1787932535 | 31.11° C | 58% | - | 0 mm | - | - | - |
| 1787931933 | 31.67° C | 57% | - | 0 mm | - | - | - |
| 1787931351 | 31.11° C | 58% | - | 0 mm | - | - | - |
| 1787930730 | 30° C | 63% | - | 0 mm | - | - | - |
| 1787930129 | 28.33° C | 69% | - | 0 mm | - | - | - |
| 1787929524 | 26.67° C | 72% | - | 0 mm | - | - | - |
| 1787928929 | 25.56° C | 75% | - | 0 mm | - | - | - |
| 1787928320 | 25° C | 77% | - | 0 mm | - | - | - |
| 1787927736 | 24.44° C | 78% | - | 0 mm | - | - | - |
| 1787927133 | 24.44° C | 79% | - | 0 mm | - | - | - |
| 1787926531 | 24.44° C | 79% | - | 0 mm | - | - | - |
| 1787925932 | 25° C | 80% | - | 0 mm | - | - | - |
| 1787925329 | 24.44° C | 81% | - | 0 mm | - | - | - |
| 1787924724 | 23.33° C | 83% | - | 0 mm | - | - | - |
| 1787924122 | 23.33° C | 84% | - | 0 mm | - | - | - |
| 1787923521 | 22.78° C | 85% | - | 0 mm | - | - | - |
| 1787922935 | 22.78° C | 86% | - | 0 mm | - | - | - |
| 1787922333 | 22.22° C | 87% | - | 0 mm | - | - | - |
| 1787921730 | 21.67° C | 89% | - | 0 mm | - | - | - |
| 1787921128 | 21.11° C | 90% | - | 0 mm | - | - | - |
| 1787920528 | 20.56° C | 92% | - | 0 mm | - | - | - |
| 1787919924 | 20.56° C | 93% | - | 0 mm | - | - | - |
| 1787919322 | 20.56° C | 93% | - | 0 mm | - | - | - |
| 1787918721 | 20° C | 94% | - | 0 mm | - | - | - |
* Rain latest hour (hover to see other rain measurements)
** Current wind speed in m/s (hover to see current wind gust speed)